createdAt,value
2022-10-09T00:01:14.227Z,4.15
2022-10-09T00:03:44.102Z,3.38
2022-10-09T00:06:17.685Z,3.22
2022-10-09T00:08:45.876Z,3.50
2022-10-09T00:11:16.303Z,3.40
2022-10-09T00:13:44.661Z,3.60
2022-10-09T00:16:15.453Z,3.40
2022-10-09T00:18:44.073Z,3.33
2022-10-09T00:21:21.903Z,3.20
2022-10-09T00:23:50.603Z,3.40
2022-10-09T00:26:18.969Z,3.30
2022-10-09T00:28:47.632Z,3.13
2022-10-09T00:31:17.849Z,4.15
2022-10-09T00:33:46.282Z,3.90
2022-10-09T00:36:16.347Z,3.75
2022-10-09T00:38:44.588Z,3.50
2022-10-09T00:41:16.554Z,3.40
2022-10-09T00:43:47.636Z,4.00
2022-10-09T00:46:34.764Z,3.50
2022-10-09T00:49:10.284Z,3.28
2022-10-09T00:51:38.735Z,3.60
2022-10-09T00:54:10.068Z,3.20
2022-10-09T00:56:38.223Z,3.25
2022-10-09T00:59:07.114Z,3.60
2022-10-09T01:01:36.605Z,3.50
2022-10-09T01:04:04.606Z,4.15
2022-10-09T01:06:46.850Z,3.05
2022-10-09T01:09:16.748Z,3.55
2022-10-09T01:11:52.888Z,3.10
2022-10-09T01:14:27.033Z,3.17
2022-10-09T01:17:03.694Z,3.20
2022-10-09T01:20:02.984Z,3.42
2022-10-09T01:22:42.021Z,3.22
2022-10-09T01:25:12.433Z,3.20
2022-10-09T01:27:42.405Z,3.17
2022-10-09T01:30:13.184Z,3.50
2022-10-09T01:32:44.602Z,3.55
2022-10-09T01:35:14.097Z,3.10
2022-10-09T01:37:45.377Z,3.83
2022-10-09T01:40:15.787Z,3.83
2022-10-09T01:42:47.099Z,3.90
2022-10-09T01:45:16.168Z,3.92
2022-10-09T01:47:44.430Z,3.78
2022-10-09T01:50:18.698Z,3.83
2022-10-09T01:52:50.904Z,4.32
2022-10-09T01:55:31.543Z,4.22
2022-10-09T01:58:07.494Z,3.92
2022-10-09T02:00:39.132Z,4.13
2022-10-09T02:03:12.323Z,4.05
2022-10-09T02:05:43.469Z,4.43
2022-10-09T02:08:17.384Z,4.22
2022-10-09T02:10:48.162Z,4.47
2022-10-09T02:13:18.494Z,4.25
2022-10-09T02:15:50.171Z,4.20
2022-10-09T02:18:26.737Z,5.18
2022-10-09T02:21:00.346Z,4.55
2022-10-09T02:23:29.930Z,4.28
2022-10-09T02:25:58.477Z,4.10
2022-10-09T02:28:27.973Z,4.00
2022-10-09T02:31:00.141Z,4.32
2022-10-09T02:33:31.401Z,3.72
2022-10-09T02:35:59.451Z,3.80
2022-10-09T02:38:27.624Z,3.67
2022-10-09T02:40:59.066Z,3.35
2022-10-09T02:43:28.546Z,4.13
2022-10-09T02:45:56.486Z,3.38
2022-10-09T02:48:24.510Z,3.42
2022-10-09T02:50:52.514Z,3.30
2022-10-09T02:53:20.466Z,3.53
2022-10-09T02:55:48.450Z,3.42
2022-10-09T02:58:16.403Z,3.22
2022-10-09T03:00:49.442Z,3.38
2022-10-09T03:03:17.466Z,3.28
2022-10-09T03:05:45.400Z,3.22
2022-10-09T03:08:13.369Z,2.78
2022-10-09T03:10:42.174Z,3.35
2022-10-09T03:13:10.591Z,3.20
2022-10-09T03:15:38.791Z,2.63
2022-10-09T03:18:08.217Z,2.63
2022-10-09T03:20:36.234Z,2.88
2022-10-09T03:23:04.193Z,2.53
2022-10-09T03:25:32.503Z,2.70
2022-10-09T03:28:00.543Z,2.95
2022-10-09T03:30:28.594Z,2.70
2022-10-09T03:32:56.546Z,3.10
2022-10-09T03:35:25.931Z,3.03
2022-10-09T03:37:53.845Z,3.13
2022-10-09T03:40:21.843Z,3.05
2022-10-09T03:42:50.098Z,3.40
2022-10-09T03:45:18.367Z,2.65
2022-10-09T03:47:46.332Z,3.10
2022-10-09T03:50:14.356Z,3.45
2022-10-09T03:52:43.705Z,3.70
2022-10-09T03:55:11.700Z,2.67
2022-10-09T03:57:39.690Z,2.65
2022-10-09T04:00:09.087Z,2.60
2022-10-09T04:02:37.203Z,2.78
2022-10-09T04:05:05.825Z,2.70
2022-10-09T04:07:34.494Z,2.70
2022-10-09T04:10:05.844Z,3.00
2022-10-09T04:12:33.934Z,2.85
2022-10-09T04:15:01.940Z,2.65
2022-10-09T04:17:29.994Z,2.67
2022-10-09T04:19:58.044Z,2.75
2022-10-09T04:22:26.258Z,3.40
2022-10-09T04:24:54.213Z,3.00
2022-10-09T04:27:23.554Z,3.22
2022-10-09T04:29:51.468Z,2.70
2022-10-09T04:32:19.498Z,2.53
2022-10-09T04:34:47.511Z,2.80
2022-10-09T04:37:15.463Z,3.20
2022-10-09T04:39:43.446Z,2.75
2022-10-09T04:42:11.431Z,3.22
2022-10-09T04:44:40.815Z,2.92
2022-10-09T04:47:11.260Z,2.75
2022-10-09T04:49:39.787Z,3.17
2022-10-09T04:52:07.870Z,3.10
2022-10-09T04:54:35.875Z,3.10
2022-10-09T04:57:03.903Z,2.80
2022-10-09T04:59:31.988Z,3.28
2022-10-09T05:02:01.379Z,2.72
2022-10-09T05:04:29.403Z,3.00
2022-10-09T05:06:57.429Z,3.45
2022-10-09T05:09:25.474Z,2.70
2022-10-09T05:11:53.469Z,2.92
2022-10-09T05:14:21.423Z,3.28
2022-10-09T05:17:12.482Z,3.55
2022-10-09T05:19:42.143Z,3.13
2022-10-09T05:22:10.097Z,2.78
2022-10-09T05:24:38.186Z,3.55
2022-10-09T05:27:06.162Z,3.38
2022-10-09T05:29:34.278Z,3.75
2022-10-09T05:32:02.394Z,4.28
2022-10-09T05:34:30.383Z,4.50
2022-10-09T05:36:59.756Z,4.30
2022-10-09T05:39:27.841Z,4.20
2022-10-09T05:41:55.917Z,4.07
2022-10-09T05:44:24.000Z,4.10
2022-10-09T05:46:51.945Z,3.20
2022-10-09T05:49:19.999Z,3.75
2022-10-09T05:51:50.875Z,3.30
2022-10-09T05:54:20.338Z,3.40
2022-10-09T05:56:48.604Z,3.05
2022-10-09T05:59:19.646Z,3.28
2022-10-09T06:01:50.229Z,3.13
2022-10-09T06:04:20.611Z,3.65
2022-10-09T06:06:49.552Z,3.50
2022-10-09T06:09:22.239Z,4.00
2022-10-09T06:11:50.918Z,3.65
2022-10-09T06:14:22.188Z,3.60
2022-10-09T06:16:50.665Z,3.90
2022-10-09T06:19:19.834Z,4.10
2022-10-09T06:21:49.252Z,3.30
2022-10-09T06:24:26.962Z,3.50
2022-10-09T06:26:56.945Z,3.65
2022-10-09T06:29:25.000Z,3.50
2022-10-09T06:31:53.190Z,3.58
2022-10-09T06:34:21.626Z,4.00
2022-10-09T06:36:50.106Z,3.63
2022-10-09T06:39:19.913Z,3.58
2022-10-09T06:41:47.982Z,4.85
2022-10-09T06:44:17.341Z,3.60
2022-10-09T06:46:46.619Z,3.83
2022-10-09T06:49:14.685Z,3.90
2022-10-09T06:51:42.623Z,3.50
2022-10-09T06:54:13.976Z,3.72
2022-10-09T06:56:43.451Z,3.67
2022-10-09T06:59:12.163Z,3.45
2022-10-09T07:01:40.386Z,3.42
2022-10-09T07:04:11.770Z,3.45
2022-10-09T07:06:41.960Z,3.17
2022-10-09T07:09:19.944Z,3.10
2022-10-09T07:11:58.153Z,7.05
2022-10-09T07:14:26.126Z,3.50
2022-10-09T07:17:01.051Z,3.30
2022-10-09T07:19:28.991Z,3.17
2022-10-09T07:21:59.643Z,3.75
2022-10-09T07:24:27.668Z,3.00
2022-10-09T07:26:57.422Z,3.25
2022-10-09T07:29:25.370Z,3.30
2022-10-09T07:31:53.394Z,2.83
2022-10-09T07:34:21.593Z,3.00
2022-10-09T07:36:49.586Z,3.00
2022-10-09T07:39:19.610Z,3.10
2022-10-09T07:41:47.837Z,2.65
2022-10-09T07:44:17.956Z,2.83
2022-10-09T07:46:46.397Z,2.85
2022-10-09T07:49:14.350Z,2.75
2022-10-09T07:51:42.294Z,2.97
2022-10-09T07:54:10.359Z,3.30
2022-10-09T07:56:40.822Z,2.92
2022-10-09T07:59:13.476Z,3.10
2022-10-09T08:01:46.051Z,3.00
2022-10-09T08:04:14.123Z,2.90
2022-10-09T08:06:42.058Z,2.97
2022-10-09T08:09:10.279Z,3.03
2022-10-09T08:11:40.621Z,3.03
2022-10-09T08:14:16.605Z,3.05
2022-10-09T08:16:50.749Z,2.90
2022-10-09T08:19:18.760Z,2.65
2022-10-09T08:21:58.142Z,2.90
2022-10-09T08:24:32.841Z,2.38
2022-10-09T08:27:01.048Z,2.60
2022-10-09T08:29:29.078Z,2.97
2022-10-09T08:32:01.626Z,2.25
2022-10-09T08:34:32.684Z,2.45
2022-10-09T08:37:00.792Z,2.28
2022-10-09T08:39:30.930Z,2.35
2022-10-09T08:42:03.574Z,2.40
2022-10-09T08:44:39.339Z,2.78
2022-10-09T08:47:14.588Z,2.30
2022-10-09T08:49:51.859Z,2.40
2022-10-09T08:52:34.472Z,2.33
2022-10-09T08:55:12.005Z,2.30
2022-10-09T08:57:40.984Z,2.22
2022-10-09T09:00:16.399Z,2.42
2022-10-09T09:03:20.857Z,2.15
2022-10-09T09:05:56.489Z,2.10
2022-10-09T09:08:32.692Z,1.90
2022-10-09T09:11:18.176Z,2.05
2022-10-09T09:13:58.200Z,2.22
2022-10-09T09:16:32.412Z,2.13
2022-10-09T09:19:23.137Z,1.98
2022-10-09T09:21:52.640Z,1.90
2022-10-09T09:24:23.256Z,1.52
2022-10-09T09:26:56.247Z,1.88
2022-10-09T09:29:24.934Z,1.70
2022-10-09T09:31:56.640Z,1.90
2022-10-09T09:34:31.091Z,1.67
2022-10-09T09:37:00.066Z,1.52
2022-10-09T09:42:20.065Z,1.52
2022-10-09T09:44:57.229Z,1.60
2022-10-09T09:47:31.140Z,1.80
2022-10-09T09:50:02.322Z,1.50
2022-10-09T09:52:33.243Z,1.90
2022-10-09T09:55:01.455Z,1.60
2022-10-09T09:57:34.068Z,2.30
2022-10-09T10:00:11.441Z,1.83
2022-10-09T10:02:39.413Z,1.75
2022-10-09T10:05:21.815Z,1.67
2022-10-09T10:07:51.575Z,2.00
2022-10-09T10:10:25.607Z,1.92
2022-10-09T10:12:57.283Z,1.75
2022-10-09T10:15:27.444Z,2.58
2022-10-09T10:18:03.607Z,2.40
2022-10-09T10:20:34.987Z,1.65
2022-10-09T10:23:03.027Z,1.88
2022-10-09T10:25:34.659Z,1.58
2022-10-09T10:28:12.109Z,1.92
2022-10-09T10:30:40.859Z,1.58
2022-10-09T10:33:18.620Z,1.75
2022-10-09T10:35:52.125Z,1.60
2022-10-09T10:38:25.729Z,1.63
2022-10-09T10:40:57.914Z,1.67
2022-10-09T10:43:34.347Z,1.73
2022-10-09T10:46:12.186Z,1.52
2022-10-09T10:48:42.900Z,1.92
2022-10-09T10:51:32.160Z,1.75
2022-10-09T10:54:11.877Z,1.50
2022-10-09T10:56:43.720Z,1.60
2022-10-09T10:59:27.775Z,2.85
2022-10-09T11:02:12.087Z,1.70
2022-10-09T11:04:48.455Z,1.77
2022-10-09T11:07:30.053Z,1.52
2022-10-09T11:10:07.573Z,1.60
2022-10-09T11:12:57.798Z,1.45
2022-10-09T11:15:37.742Z,1.80
2022-10-09T11:18:18.994Z,1.50
2022-10-09T11:21:19.316Z,1.92
2022-10-09T11:24:09.637Z,1.33
2022-10-09T11:26:44.312Z,1.42
2022-10-09T11:29:18.434Z,1.70
2022-10-09T11:31:51.124Z,1.40
2022-10-09T11:34:25.520Z,1.42
2022-10-09T11:36:54.343Z,1.30
2022-10-09T11:39:27.141Z,1.40
2022-10-09T11:41:56.831Z,1.42
2022-10-09T11:44:37.157Z,1.23
2022-10-09T11:47:11.680Z,1.60
2022-10-09T11:49:59.070Z,1.30
2022-10-09T11:52:37.379Z,1.42
2022-10-09T11:55:20.963Z,1.35
2022-10-09T11:57:51.206Z,1.77
2022-10-09T12:00:31.270Z,1.75
2022-10-09T12:03:02.545Z,1.80
2022-10-09T12:05:41.215Z,1.85
2022-10-09T12:08:15.425Z,2.00
2022-10-09T12:10:54.281Z,1.73
2022-10-09T12:13:32.775Z,1.63
2022-10-09T12:16:01.315Z,1.35
2022-10-09T12:18:32.268Z,1.80
2022-10-09T12:21:03.471Z,1.48
2022-10-09T12:23:36.050Z,1.30
2022-10-09T12:26:06.788Z,1.60
2022-10-09T12:28:39.496Z,1.40
2022-10-09T12:31:18.453Z,1.33
2022-10-09T12:33:50.435Z,1.50
2022-10-09T12:36:25.678Z,1.40
2022-10-09T12:38:53.679Z,1.60
2022-10-09T12:41:26.407Z,1.40
2022-10-09T12:43:56.584Z,2.00
2022-10-09T12:46:30.314Z,1.52
2022-10-09T12:48:59.707Z,1.73
2022-10-09T12:51:30.518Z,1.55
2022-10-09T12:53:58.550Z,2.30
2022-10-09T12:56:31.528Z,1.65
2022-10-09T12:59:00.730Z,1.92
2022-10-09T13:01:29.460Z,1.85
2022-10-09T13:03:59.137Z,1.90
2022-10-09T13:06:29.362Z,1.67
2022-10-09T13:09:02.737Z,1.95
2022-10-09T13:11:34.725Z,2.10
2022-10-09T13:14:02.977Z,1.95
2022-10-09T13:16:43.198Z,1.90
2022-10-09T13:19:25.889Z,2.03
2022-10-09T13:22:20.136Z,1.95
2022-10-09T13:24:51.001Z,1.90
2022-10-09T13:27:27.038Z,1.90
2022-10-09T13:29:55.508Z,1.95
2022-10-09T13:32:24.284Z,1.80
2022-10-09T13:34:55.789Z,1.90
2022-10-09T13:37:25.741Z,2.20
2022-10-09T13:39:56.431Z,1.98
2022-10-09T13:42:29.428Z,2.17
2022-10-09T13:44:57.528Z,2.20
2022-10-09T13:47:25.571Z,2.60
2022-10-09T13:49:53.617Z,2.05
2022-10-09T13:52:21.614Z,2.25
2022-10-09T13:54:51.483Z,2.47
2022-10-09T13:57:19.507Z,2.60
2022-10-09T13:59:48.935Z,2.63
2022-10-09T14:02:16.930Z,2.72
2022-10-09T14:04:44.973Z,2.70
2022-10-09T14:07:13.004Z,2.42
2022-10-09T14:09:42.800Z,2.70
2022-10-09T14:12:10.818Z,2.80
2022-10-09T14:14:38.810Z,2.65
2022-10-09T14:17:08.186Z,3.00
2022-10-09T14:19:38.586Z,2.75
2022-10-09T14:22:06.684Z,3.00
2022-10-09T14:24:34.836Z,2.83
2022-10-09T14:27:03.511Z,3.08
2022-10-09T14:29:31.806Z,3.03
2022-10-09T14:31:59.788Z,2.90
2022-10-09T14:34:29.212Z,3.15
2022-10-09T14:36:57.360Z,3.00
2022-10-09T14:39:25.352Z,2.88
2022-10-09T14:41:53.404Z,2.80
2022-10-09T14:44:21.439Z,2.95
2022-10-09T14:46:49.593Z,3.05
2022-10-09T14:49:17.627Z,3.03
2022-10-09T14:51:46.979Z,3.50
2022-10-09T14:54:15.089Z,3.72
2022-10-09T14:56:43.310Z,3.22
2022-10-09T14:59:11.303Z,3.70
2022-10-09T15:01:39.330Z,3.60
2022-10-09T15:04:07.607Z,3.47
2022-10-09T15:06:35.725Z,3.72
2022-10-09T15:09:08.786Z,4.00
2022-10-09T15:11:37.193Z,3.50
2022-10-09T15:14:06.496Z,3.38
2022-10-09T15:16:36.483Z,3.60
2022-10-09T15:19:05.693Z,3.60
2022-10-09T15:21:35.299Z,3.58
2022-10-09T15:24:06.108Z,3.63
2022-10-09T15:26:36.940Z,3.45
2022-10-09T15:29:07.541Z,3.80
2022-10-09T15:31:38.271Z,3.38
2022-10-09T15:34:08.045Z,3.70
2022-10-09T15:36:43.125Z,3.50
2022-10-09T15:39:12.619Z,3.28
2022-10-09T15:41:47.597Z,3.65
2022-10-09T15:44:17.806Z,3.63
2022-10-09T15:46:51.240Z,3.78
2022-10-09T15:49:19.828Z,3.55
2022-10-09T15:51:47.871Z,3.05
2022-10-09T15:54:17.599Z,3.42
2022-10-09T15:56:45.699Z,3.40
2022-10-09T15:59:16.697Z,3.05
2022-10-09T16:01:45.044Z,3.08
2022-10-09T16:04:15.845Z,3.90
2022-10-09T16:06:44.071Z,3.63
2022-10-09T16:09:15.088Z,3.08
2022-10-09T16:11:44.539Z,3.25
2022-10-09T16:14:13.053Z,3.45
2022-10-09T16:16:41.329Z,4.45
2022-10-09T16:19:09.404Z,3.53
2022-10-09T16:21:37.667Z,4.57
2022-10-09T16:24:07.828Z,40.42
2022-10-09T16:26:35.812Z,11.82
2022-10-09T16:29:05.298Z,11.90
2022-10-09T16:31:35.705Z,5.63
2022-10-09T16:34:05.511Z,3.90
2022-10-09T16:36:33.926Z,4.10
2022-10-09T16:39:02.003Z,4.32
2022-10-09T16:41:30.022Z,3.78
2022-10-09T16:44:01.443Z,4.18
2022-10-09T16:49:03.661Z,3.50
2022-10-09T16:51:33.939Z,4.75
2022-10-09T16:54:05.639Z,6.03
2022-10-09T16:56:36.225Z,5.30
2022-10-09T16:59:06.085Z,4.82
2022-10-09T17:01:39.314Z,11.68
2022-10-09T17:04:07.360Z,4.03
2022-10-09T17:06:35.677Z,5.78
2022-10-09T17:09:04.551Z,14.45
2022-10-09T17:11:32.736Z,10.63
2022-10-09T17:14:00.923Z,8.15
2022-10-09T17:16:31.564Z,4.60
2022-10-09T17:19:01.794Z,5.15
2022-10-09T17:21:34.152Z,6.38
2022-10-09T17:24:07.574Z,4.38
2022-10-09T17:26:38.382Z,5.00
2022-10-09T17:29:09.476Z,5.45
2022-10-09T17:31:59.037Z,6.30
2022-10-09T17:34:45.216Z,5.35
2022-10-09T17:37:15.503Z,24.65
2022-10-09T17:39:51.160Z,13.77
2022-10-09T17:42:35.716Z,8.07
2022-10-09T17:45:08.654Z,12.60
2022-10-09T17:47:44.690Z,10.57
2022-10-09T17:50:14.463Z,8.88
2022-10-09T17:52:48.935Z,7.03
2022-10-09T17:55:17.387Z,5.78
2022-10-09T17:57:45.487Z,6.68
2022-10-09T18:00:18.454Z,15.18
2022-10-09T18:02:49.364Z,32.55
2022-10-09T18:05:19.088Z,20.45
2022-10-09T18:07:47.762Z,11.35
2022-10-09T18:10:30.122Z,17.23
2022-10-09T18:13:00.015Z,25.40
2022-10-09T18:15:52.348Z,9.57
2022-10-09T18:18:22.330Z,6.90
2022-10-09T18:21:03.544Z,8.55
2022-10-09T18:23:42.953Z,14.07
2022-10-09T18:26:14.584Z,8.95
2022-10-09T18:28:44.816Z,22.50
2022-10-09T18:31:28.621Z,26.08
2022-10-09T18:33:58.417Z,17.60
2022-10-09T18:36:31.618Z,9.60
2022-10-09T18:39:01.792Z,11.68
2022-10-09T18:41:31.262Z,7.10
2022-10-09T18:44:20.877Z,6.28
2022-10-09T18:46:52.616Z,6.65
2022-10-09T18:49:37.095Z,8.25
2022-10-09T18:52:12.465Z,6.32
2022-10-09T18:54:42.207Z,7.25
2022-10-09T18:57:35.742Z,9.38
2022-10-09T19:00:02.665Z,27.95
2022-10-09T19:02:35.500Z,10.90
2022-10-09T19:05:04.003Z,34.40
2022-10-09T19:07:48.774Z,19.33
2022-10-09T19:10:17.304Z,9.85
2022-10-09T19:12:49.023Z,8.45
2022-10-09T19:15:17.412Z,9.95
2022-10-09T19:17:45.605Z,16.23
2022-10-09T19:20:13.717Z,85.30
2022-10-09T19:22:43.274Z,31.33
2022-10-09T19:25:12.000Z,32.10
2022-10-09T19:27:40.215Z,34.58
2022-10-09T19:30:11.206Z,32.22
2022-10-09T19:32:42.066Z,56.15
2022-10-09T19:35:10.508Z,19.15
2022-10-09T19:37:41.838Z,10.82
2022-10-09T19:40:11.667Z,8.18
2022-10-09T19:42:39.723Z,10.05
2022-10-09T19:45:34.106Z,20.60
2022-10-09T19:48:05.174Z,21.15
2022-10-09T19:50:36.522Z,19.23
2022-10-09T19:53:06.629Z,30.10
2022-10-09T19:56:08.060Z,26.55
2022-10-09T19:58:40.929Z,32.35
2022-10-09T20:01:10.619Z,32.05
2022-10-09T20:03:43.042Z,26.27
2022-10-09T20:06:20.556Z,19.08
2022-10-09T20:08:56.665Z,36.28
2022-10-09T20:11:29.032Z,12.38
2022-10-09T20:14:05.788Z,14.15
2022-10-09T20:16:38.039Z,15.63
2022-10-09T20:19:06.908Z,12.80
2022-10-09T20:21:38.791Z,12.70
2022-10-09T20:24:10.096Z,11.90
2022-10-09T20:26:48.483Z,9.18
2022-10-09T20:29:31.685Z,10.73
2022-10-09T20:32:07.684Z,9.20
2022-10-09T20:34:35.910Z,9.98
2022-10-09T20:37:11.666Z,9.40
2022-10-09T20:39:39.999Z,9.18
2022-10-09T20:42:17.430Z,9.55
2022-10-09T20:44:50.369Z,8.30
2022-10-09T20:47:26.185Z,12.68
2022-10-09T20:49:54.249Z,9.48
2022-10-09T20:52:28.576Z,8.27
2022-10-09T20:55:02.838Z,8.18
2022-10-09T20:57:32.638Z,10.02
2022-10-09T21:00:01.238Z,11.32
2022-10-09T21:02:35.256Z,8.88
2022-10-09T21:05:04.977Z,9.35
2022-10-09T21:07:36.963Z,8.10
2022-10-09T21:10:07.258Z,9.75
2022-10-09T21:12:37.379Z,8.77
2022-10-09T21:15:06.879Z,9.48
2022-10-09T21:17:35.187Z,9.48
2022-10-09T21:20:03.347Z,9.10
2022-10-09T21:22:34.753Z,7.43
2022-10-09T21:25:02.874Z,8.10
2022-10-09T21:27:33.793Z,9.18
2022-10-09T21:30:03.205Z,10.73
2022-10-09T21:32:31.176Z,19.08
2022-10-09T21:34:59.193Z,11.90
2022-10-09T21:37:27.163Z,9.32
2022-10-09T21:39:55.175Z,7.57
2022-10-09T21:42:23.476Z,8.52
2022-10-09T21:44:52.068Z,8.50
2022-10-09T21:47:34.433Z,8.20
2022-10-09T21:50:02.655Z,7.88
2022-10-09T21:52:32.632Z,8.45
2022-10-09T21:55:08.245Z,8.40
2022-10-09T21:57:40.303Z,8.63
2022-10-09T22:00:16.530Z,8.63
2022-10-09T22:02:46.039Z,8.70
2022-10-09T22:05:17.695Z,8.75
2022-10-09T22:07:51.635Z,8.77
2022-10-09T22:10:27.595Z,8.50
2022-10-09T22:12:55.956Z,8.65
2022-10-09T22:15:24.557Z,9.07
2022-10-09T22:17:54.269Z,9.55
2022-10-09T22:20:22.524Z,9.07
2022-10-09T22:22:51.172Z,9.90
2022-10-09T22:25:19.702Z,9.18
2022-10-09T22:27:53.877Z,9.50
2022-10-09T22:30:21.984Z,9.65
2022-10-09T22:32:50.491Z,8.32
2022-10-09T22:35:20.202Z,10.10
2022-10-09T22:37:51.095Z,9.98
2022-10-09T22:40:22.070Z,10.07
2022-10-09T22:42:50.337Z,10.73
2022-10-09T22:45:18.689Z,10.45
2022-10-09T22:47:48.389Z,10.30
2022-10-09T22:50:16.571Z,10.70
2022-10-09T22:52:48.250Z,11.50
2022-10-09T22:55:16.681Z,11.93
2022-10-09T22:57:44.852Z,13.05
2022-10-09T23:00:14.550Z,12.63
2022-10-09T23:02:44.966Z,11.95
2022-10-09T23:05:13.096Z,12.93
2022-10-09T23:07:41.418Z,11.60
2022-10-09T23:10:12.677Z,12.85
2022-10-09T23:12:40.955Z,14.20
2022-10-09T23:15:09.870Z,14.27
2022-10-09T23:17:38.339Z,14.00
2022-10-09T23:20:10.283Z,14.10
2022-10-09T23:22:39.689Z,13.80
2022-10-09T23:25:12.499Z,13.50
2022-10-09T23:27:40.504Z,14.55
2022-10-09T23:30:12.849Z,13.35
2022-10-09T23:32:40.948Z,13.57
2022-10-09T23:35:12.060Z,13.25
2022-10-09T23:37:42.495Z,12.40
2022-10-09T23:40:12.390Z,11.80
2022-10-09T23:42:40.461Z,12.35
2022-10-09T23:45:10.067Z,12.85
2022-10-09T23:47:38.146Z,12.00
2022-10-09T23:50:08.615Z,12.30
2022-10-09T23:52:36.986Z,11.73
2022-10-09T23:55:08.047Z,11.75
2022-10-09T23:57:37.637Z,11.65
